createdAt,value
2018-02-25T00:00:44.709Z,17.10
2018-02-25T00:03:15.609Z,16.77
2018-02-25T00:05:45.603Z,16.02
2018-02-25T00:08:14.529Z,17.35
2018-02-25T00:10:45.445Z,15.60
2018-02-25T00:13:14.566Z,19.70
2018-02-25T00:15:43.750Z,17.20
2018-02-25T00:18:13.780Z,17.02
2018-02-25T00:20:43.770Z,14.87
2018-02-25T00:23:14.589Z,17.60
2018-02-25T00:25:43.735Z,13.38
2018-02-25T00:28:14.241Z,14.38
2018-02-25T00:30:44.846Z,14.65
2018-02-25T00:33:14.962Z,16.80
2018-02-25T00:35:44.247Z,17.10
2018-02-25T00:38:13.598Z,18.40
2018-02-25T00:40:44.482Z,14.50
2018-02-25T00:43:14.377Z,16.25
2018-02-25T00:45:45.024Z,15.57
2018-02-25T00:48:14.603Z,15.68
2018-02-25T00:50:44.307Z,14.45
2018-02-25T00:53:14.330Z,14.40
2018-02-25T00:55:43.711Z,11.73
2018-02-25T00:58:12.751Z,17.80
2018-02-25T01:00:41.692Z,13.98
2018-02-25T01:03:10.664Z,15.68
2018-02-25T01:05:39.544Z,17.40
2018-02-25T01:08:08.505Z,14.87
2018-02-25T01:10:37.452Z,14.45
2018-02-25T01:13:06.333Z,16.37
2018-02-25T01:15:35.215Z,16.67
2018-02-25T01:18:04.083Z,17.73
2018-02-25T01:20:33.145Z,14.87
2018-02-25T01:23:01.975Z,14.87
2018-02-25T01:25:30.890Z,11.85
2018-02-25T01:28:01.613Z,18.75
2018-02-25T01:30:30.475Z,13.93
2018-02-25T01:32:59.300Z,16.30
2018-02-25T01:35:28.187Z,15.23
2018-02-25T01:37:57.112Z,16.52
2018-02-25T01:40:25.982Z,14.40
2018-02-25T01:42:54.926Z,13.93
2018-02-25T01:45:23.873Z,14.90
2018-02-25T01:47:52.713Z,14.68
2018-02-25T01:50:25.090Z,14.40
2018-02-25T01:52:54.361Z,15.88
2018-02-25T01:55:23.560Z,18.35
2018-02-25T01:57:56.134Z,15.30
2018-02-25T02:00:25.344Z,13.38
2018-02-25T02:02:55.773Z,14.02
2018-02-25T02:05:31.294Z,17.62
2018-02-25T02:08:00.305Z,12.73
2018-02-25T02:10:29.522Z,13.00
2018-02-25T02:13:00.346Z,12.13
2018-02-25T02:15:29.195Z,13.95
2018-02-25T02:17:58.084Z,16.15
2018-02-25T02:23:47.231Z,15.32
2018-02-25T02:26:17.970Z,12.18
2018-02-25T02:28:48.506Z,14.52
2018-02-25T02:31:18.511Z,12.07
2018-02-25T02:33:48.510Z,11.85
2018-02-25T02:36:18.546Z,12.23
2018-02-25T02:38:48.610Z,15.30
2018-02-25T02:41:19.244Z,15.50
2018-02-25T02:43:50.170Z,13.60
2018-02-25T02:46:20.294Z,14.98
2018-02-25T02:48:49.678Z,14.18
2018-02-25T02:51:18.781Z,14.50
2018-02-25T02:53:48.049Z,13.70
2018-02-25T02:56:17.344Z,16.75
2018-02-25T02:58:47.120Z,16.62
2018-02-25T03:01:16.708Z,16.70
2018-02-25T03:03:49.254Z,14.13
2018-02-25T03:06:18.485Z,15.23
2018-02-25T03:08:48.164Z,14.07
2018-02-25T03:11:17.785Z,15.10
2018-02-25T03:13:46.908Z,13.43
2018-02-25T03:16:19.038Z,13.32
2018-02-25T03:18:49.050Z,11.38
2018-02-25T03:21:19.854Z,11.65
2018-02-25T03:23:49.331Z,11.55
2018-02-25T03:26:18.535Z,17.35
2018-02-25T03:28:47.729Z,15.48
2018-02-25T03:31:17.115Z,14.70
2018-02-25T03:33:46.321Z,15.68
2018-02-25T03:36:15.519Z,13.82
2018-02-25T03:38:44.586Z,11.50
2018-02-25T03:41:14.037Z,12.25
2018-02-25T03:43:44.864Z,11.77
2018-02-25T03:46:13.927Z,13.45
2018-02-25T03:48:46.584Z,13.62
2018-02-25T03:51:15.706Z,11.18
2018-02-25T03:53:44.869Z,13.48
2018-02-25T03:56:14.714Z,12.57
2018-02-25T03:58:44.045Z,12.88
2018-02-25T04:01:14.055Z,14.18
2018-02-25T04:03:46.714Z,13.02
2018-02-25T04:06:18.293Z,10.65
2018-02-25T04:08:48.403Z,14.38
2018-02-25T04:11:17.583Z,12.90
2018-02-25T04:13:53.949Z,14.93
2018-02-25T04:16:23.961Z,11.70
2018-02-25T04:18:53.165Z,13.38
2018-02-25T04:21:22.258Z,11.70
2018-02-25T04:23:51.820Z,14.02
2018-02-25T04:26:20.655Z,12.70
2018-02-25T04:28:51.130Z,14.40
2018-02-25T04:31:19.989Z,12.98
2018-02-25T04:33:48.823Z,12.52
2018-02-25T04:36:19.366Z,15.18
2018-02-25T04:38:48.271Z,11.93
2018-02-25T04:41:19.223Z,13.77
2018-02-25T04:43:48.090Z,12.88
2018-02-25T04:46:17.019Z,13.27
2018-02-25T04:48:45.898Z,11.48
2018-02-25T04:51:15.749Z,12.50
2018-02-25T04:53:44.667Z,13.93
2018-02-25T04:56:13.624Z,11.88
2018-02-25T04:58:42.513Z,14.25
2018-02-25T05:01:11.461Z,11.55
2018-02-25T05:03:40.301Z,14.57
2018-02-25T05:06:09.265Z,12.32
2018-02-25T05:08:38.205Z,12.50
2018-02-25T05:11:07.032Z,12.70
2018-02-25T05:13:36.818Z,14.10
2018-02-25T05:16:05.834Z,15.88
2018-02-25T05:18:34.646Z,13.02
2018-02-25T05:21:03.634Z,14.65
2018-02-25T05:23:32.809Z,13.10
2018-02-25T05:26:03.938Z,14.40
2018-02-25T05:28:33.830Z,15.57
2018-02-25T05:31:03.970Z,12.73
2018-02-25T05:33:33.951Z,15.35
2018-02-25T05:36:03.335Z,15.10
2018-02-25T05:38:32.459Z,13.40
2018-02-25T05:41:01.625Z,15.68
2018-02-25T05:43:33.232Z,14.80
2018-02-25T05:46:02.501Z,14.30
2018-02-25T05:48:32.318Z,16.15
2018-02-25T05:51:01.591Z,15.80
2018-02-25T05:53:30.893Z,14.15
2018-02-25T05:55:59.735Z,14.00
2018-02-25T05:58:29.723Z,13.85
2018-02-25T06:00:58.571Z,14.18
2018-02-25T06:03:27.418Z,14.80
2018-02-25T06:05:59.930Z,14.02
2018-02-25T06:08:28.790Z,12.48
2018-02-25T06:10:57.659Z,13.65
2018-02-25T06:13:26.528Z,14.48
2018-02-25T06:15:55.394Z,14.93
2018-02-25T06:18:24.283Z,13.88
2018-02-25T06:20:54.097Z,11.88
2018-02-25T06:23:22.983Z,13.55
2018-02-25T06:25:51.993Z,15.60
2018-02-25T06:28:26.143Z,14.95
2018-02-25T06:30:56.189Z,13.90
2018-02-25T06:33:26.093Z,14.77
2018-02-25T06:35:56.129Z,14.27
2018-02-25T06:38:25.208Z,14.15
2018-02-25T06:40:54.483Z,15.98
2018-02-25T06:43:25.458Z,13.25
2018-02-25T06:45:55.380Z,12.95
2018-02-25T06:48:24.538Z,12.48
2018-02-25T06:50:54.074Z,15.60
2018-02-25T06:53:23.979Z,14.02
2018-02-25T06:55:53.817Z,12.80
2018-02-25T06:58:25.074Z,14.98
2018-02-25T07:00:57.116Z,16.40
2018-02-25T07:03:26.222Z,11.70
2018-02-25T07:05:56.200Z,16.10
2018-02-25T07:08:27.294Z,12.95
2018-02-25T07:10:57.038Z,13.38
2018-02-25T07:13:26.237Z,12.37
2018-02-25T07:15:56.252Z,12.15
2018-02-25T07:18:25.133Z,12.85
2018-02-25T07:20:54.013Z,10.30
2018-02-25T07:23:23.715Z,13.18
2018-02-25T07:25:52.539Z,11.70
2018-02-25T07:28:21.418Z,15.40
2018-02-25T07:30:51.118Z,11.10
2018-02-25T07:33:19.973Z,13.40
2018-02-25T07:35:48.798Z,13.60
2018-02-25T07:38:18.570Z,17.67
2018-02-25T07:40:47.533Z,15.00
2018-02-25T07:43:16.396Z,13.95
2018-02-25T07:45:45.258Z,15.13
2018-02-25T07:48:14.120Z,15.23
2018-02-25T07:50:42.983Z,16.20
2018-02-25T07:53:11.837Z,13.02
2018-02-25T07:55:40.719Z,16.10
2018-02-25T07:58:09.507Z,15.63
2018-02-25T08:00:39.332Z,17.27
2018-02-25T08:03:08.232Z,16.87
2018-02-25T08:05:37.169Z,20.35
2018-02-25T08:08:06.044Z,19.30
2018-02-25T08:10:34.892Z,21.30
2018-02-25T08:13:03.742Z,17.77
2018-02-25T08:15:33.558Z,20.75
2018-02-25T08:18:02.467Z,15.48
2018-02-25T08:20:31.344Z,18.12
2018-02-25T08:23:00.273Z,20.12
2018-02-25T08:25:29.216Z,16.40
2018-02-25T08:27:58.112Z,17.40
2018-02-25T08:30:28.662Z,20.52
2018-02-25T08:32:57.538Z,18.05
2018-02-25T08:35:26.484Z,17.27
2018-02-25T08:37:56.302Z,15.77
2018-02-25T08:40:25.201Z,14.20
2018-02-25T08:42:54.243Z,16.20
2018-02-25T08:45:23.112Z,13.95
2018-02-25T08:47:51.948Z,18.98
2018-02-25T08:50:20.812Z,17.15
2018-02-25T08:58:50.958Z,19.70
2018-02-25T09:01:19.823Z,17.20
2018-02-25T09:03:48.779Z,15.30
2018-02-25T09:06:21.463Z,16.48
2018-02-25T09:08:50.312Z,14.80
2018-02-25T09:11:19.274Z,15.70
2018-02-25T09:13:51.829Z,18.60
2018-02-25T09:16:20.727Z,18.15
2018-02-25T09:18:49.606Z,17.40
2018-02-25T09:21:19.418Z,16.15
2018-02-25T09:23:48.331Z,15.75
2018-02-25T09:26:17.366Z,15.55
2018-02-25T09:28:48.677Z,17.65
2018-02-25T09:31:17.769Z,17.25
2018-02-25T09:33:47.617Z,18.20
2018-02-25T09:36:18.647Z,16.98
2018-02-25T09:38:49.567Z,17.58
2018-02-25T09:41:18.604Z,19.10
2018-02-25T09:43:48.719Z,15.32
2018-02-25T09:46:17.830Z,16.12
2018-02-25T09:48:47.475Z,15.50
2018-02-25T09:51:16.922Z,19.90
2018-02-25T09:53:46.093Z,18.90
2018-02-25T09:56:15.323Z,19.55
2018-02-25T09:58:46.324Z,19.65
2018-02-25T10:01:15.312Z,19.67
2018-02-25T10:03:45.156Z,22.17
2018-02-25T10:06:16.512Z,17.37
2018-02-25T10:08:47.316Z,18.42
2018-02-25T10:11:16.403Z,19.15
2018-02-25T10:13:48.117Z,18.33
2018-02-25T10:16:19.086Z,17.65
2018-02-25T10:18:50.057Z,19.35
2018-02-25T10:21:20.624Z,17.20
2018-02-25T10:23:51.549Z,15.45
2018-02-25T10:26:20.698Z,15.43
2018-02-25T10:28:49.663Z,17.23
2018-02-25T10:31:20.172Z,17.92
2018-02-25T10:33:49.229Z,17.27
2018-02-25T10:36:18.144Z,17.25
2018-02-25T10:38:47.925Z,14.27
2018-02-25T10:41:17.718Z,16.15
2018-02-25T10:43:46.967Z,15.75
2018-02-25T10:46:17.225Z,14.90
2018-02-25T12:46:59.720Z,18.27
2018-02-25T12:49:28.957Z,15.00
2018-02-25T12:51:58.209Z,15.57
2018-02-25T12:54:27.259Z,13.35
2018-02-25T12:56:56.318Z,16.15
2018-02-25T12:59:25.497Z,19.90
2018-02-25T13:01:54.829Z,17.62
2018-02-25T13:04:23.773Z,17.48
2018-02-25T13:06:52.903Z,18.60
2018-02-25T13:09:25.563Z,21.95
2018-02-25T13:11:55.752Z,19.42
2018-02-25T13:14:24.818Z,16.42
2018-02-25T13:16:54.571Z,19.00
2018-02-25T13:19:24.779Z,17.75
2018-02-25T13:21:53.946Z,19.52
2018-02-25T13:24:25.119Z,22.15
2018-02-25T13:26:54.372Z,22.62
2018-02-25T13:29:23.399Z,24.05
2018-02-25T13:31:53.250Z,22.08
2018-02-25T13:34:22.421Z,22.95
2018-02-25T13:36:53.266Z,17.77
2018-02-25T13:39:24.546Z,17.75
2018-02-25T13:41:53.552Z,19.12
2018-02-25T13:44:27.092Z,20.70
2018-02-25T13:46:56.102Z,18.02
2018-02-25T13:49:25.450Z,20.85
2018-02-25T13:51:59.227Z,24.10
2018-02-25T13:54:28.240Z,21.95
2018-02-25T13:56:57.677Z,19.37
2018-02-25T13:59:28.623Z,19.40
2018-02-25T14:01:57.899Z,18.80
2018-02-25T14:04:27.108Z,18.90
2018-02-25T14:06:56.375Z,19.92
2018-02-25T14:09:28.378Z,16.70
2018-02-25T14:11:59.286Z,20.33
2018-02-25T14:14:29.268Z,14.57
2018-02-25T14:16:58.468Z,13.70
2018-02-25T14:19:28.576Z,19.25
2018-02-25T14:21:58.813Z,18.17
2018-02-25T14:24:28.778Z,19.50
2018-02-25T14:26:58.954Z,21.15
2018-02-25T14:29:28.435Z,18.23
2018-02-25T14:31:57.710Z,16.23
2018-02-25T14:34:27.053Z,18.70
2018-02-25T14:36:56.446Z,18.35
2018-02-25T14:39:26.584Z,20.40
2018-02-25T14:41:57.023Z,21.15
2018-02-25T14:44:26.969Z,15.60
2018-02-25T14:46:57.156Z,18.37
2018-02-25T14:49:28.413Z,16.15
2018-02-25T14:51:58.493Z,17.10
2018-02-25T14:54:27.755Z,18.12
2018-02-25T14:56:57.124Z,18.05
2018-02-25T14:59:28.005Z,15.38
2018-02-25T15:01:57.227Z,19.60
2018-02-25T15:04:27.461Z,14.70
2018-02-25T15:06:56.699Z,18.45
2018-02-25T15:09:25.937Z,16.92
2018-02-25T15:12:00.013Z,20.83
2018-02-25T15:14:29.310Z,18.65
2018-02-25T15:16:59.385Z,21.92
2018-02-25T15:19:28.685Z,26.52
2018-02-25T15:21:58.911Z,24.70
2018-02-25T15:24:28.761Z,20.92
2018-02-25T15:26:59.905Z,17.25
2018-02-25T15:29:29.024Z,19.65
2018-02-25T15:31:58.312Z,20.17
2018-02-25T15:34:30.933Z,22.23
2018-02-25T15:37:02.029Z,23.60
2018-02-25T15:39:33.524Z,23.25
2018-02-25T15:42:02.677Z,23.95
2018-02-25T15:44:38.569Z,22.30
2018-02-25T15:47:08.877Z,24.37
2018-02-25T15:49:38.789Z,29.20
2018-02-25T15:52:08.264Z,27.58
2018-02-25T15:54:37.464Z,24.10
2018-02-25T15:57:07.317Z,20.25
2018-02-25T15:59:36.369Z,22.85
2018-02-25T16:02:05.312Z,21.98
2018-02-25T16:04:34.170Z,24.73
2018-02-25T16:07:03.089Z,24.42
2018-02-25T16:09:31.985Z,20.37
2018-02-25T16:12:02.266Z,23.55
2018-02-25T16:14:33.058Z,23.35
2018-02-25T16:17:02.404Z,21.90
2018-02-25T16:19:31.924Z,21.45
2018-02-25T16:22:01.763Z,19.90
2018-02-25T16:24:30.926Z,21.40
2018-02-25T16:26:59.907Z,18.80
2018-02-25T16:29:29.897Z,17.98
2018-02-25T16:31:58.965Z,22.37
2018-02-25T16:34:27.921Z,19.85
2018-02-25T16:36:57.771Z,22.13
2018-02-25T16:39:26.718Z,16.65
2018-02-25T16:41:55.743Z,17.58
2018-02-25T16:44:26.474Z,23.15
2018-02-25T16:46:55.485Z,29.90
2018-02-25T16:49:24.496Z,17.37
2018-02-25T16:51:55.164Z,21.77
2018-02-25T16:54:24.188Z,20.37
2018-02-25T16:56:53.193Z,20.67
2018-02-25T16:59:23.750Z,19.42
2018-02-25T17:01:52.689Z,23.15
2018-02-25T17:04:21.731Z,21.37
2018-02-25T17:06:50.740Z,23.98
2018-02-25T17:09:19.802Z,21.50
2018-02-25T17:11:48.734Z,27.83
2018-02-25T17:14:21.195Z,22.02
2018-02-25T17:16:50.147Z,20.80
2018-02-25T17:19:19.708Z,17.25
2018-02-25T17:21:48.772Z,16.85
2018-02-25T17:24:17.756Z,20.05
2018-02-25T17:26:46.961Z,19.70
2018-02-25T17:29:16.987Z,20.90
2018-02-25T17:31:46.004Z,23.02
2018-02-25T17:34:15.087Z,22.60
2018-02-25T17:36:44.192Z,22.08
2018-02-25T17:39:13.310Z,19.62
2018-02-25T17:41:42.464Z,16.00
2018-02-25T17:44:13.547Z,18.75
2018-02-25T17:46:42.528Z,18.98
2018-02-25T17:49:12.110Z,17.45
2018-02-25T17:51:42.423Z,16.87
2018-02-25T17:54:12.085Z,14.57
2018-02-25T17:56:41.874Z,13.68
2018-02-25T17:59:11.775Z,16.77
2018-02-25T18:01:41.044Z,18.58
2018-02-25T18:04:10.276Z,15.63
2018-02-25T18:06:39.229Z,13.07
2018-02-25T18:09:08.230Z,14.98
2018-02-25T18:11:37.219Z,14.57
2018-02-25T18:14:07.987Z,17.83
2018-02-25T18:16:36.910Z,13.38
2018-02-25T18:19:05.943Z,18.15
2018-02-25T18:21:35.038Z,15.43
2018-02-25T18:24:04.017Z,11.88
2018-02-25T18:26:33.013Z,12.88
2018-02-25T18:29:06.172Z,18.40
2018-02-25T18:31:35.067Z,18.65
2018-02-25T18:34:04.024Z,17.12
2018-02-25T18:36:33.895Z,12.10
2018-02-25T18:39:02.775Z,14.15
2018-02-25T18:41:31.687Z,16.50
2018-02-25T18:44:03.059Z,19.15
2018-02-25T18:46:32.066Z,16.75
2018-02-25T18:49:01.068Z,15.05
2018-02-25T18:51:30.968Z,15.95
2018-02-25T18:53:59.999Z,13.55
2018-02-25T18:56:28.880Z,17.05
2018-02-25T18:58:57.884Z,13.48
2018-02-25T19:01:26.826Z,13.70
2018-02-25T19:03:55.865Z,14.77
2018-02-25T19:06:24.762Z,13.62
2018-02-25T19:08:53.712Z,13.23
2018-02-25T19:11:22.645Z,14.77
2018-02-25T19:13:54.004Z,9.00
2018-02-25T19:16:22.935Z,11.52
2018-02-25T19:18:51.953Z,12.13
2018-02-25T19:21:20.849Z,12.48
2018-02-25T19:23:49.768Z,13.07
2018-02-25T19:26:18.682Z,11.25
2018-02-25T19:28:49.416Z,12.57
2018-02-25T19:31:18.298Z,14.98
2018-02-25T19:33:47.282Z,13.35
2018-02-25T19:36:23.313Z,15.80
2018-02-25T19:38:57.797Z,16.85
2018-02-25T19:41:32.380Z,12.85
2018-02-25T19:44:01.744Z,14.57
2018-02-25T19:46:30.767Z,15.40
2018-02-25T19:49:01.487Z,11.05
2018-02-25T19:51:30.450Z,14.07
2018-02-25T19:53:59.315Z,14.80
2018-02-25T19:56:28.490Z,12.65
2018-02-25T19:58:57.575Z,13.52
2018-02-25T20:01:27.365Z,13.02
2018-02-25T20:03:58.606Z,13.55
2018-02-25T20:06:27.640Z,12.00
2018-02-25T20:08:56.693Z,14.20
2018-02-25T20:11:25.673Z,14.90
2018-02-25T20:13:54.633Z,13.35
2018-02-25T20:16:23.825Z,12.60
2018-02-25T20:18:53.975Z,11.00
2018-02-25T20:21:22.879Z,12.93
2018-02-25T20:23:51.944Z,10.88
2018-02-25T20:26:21.912Z,11.93
2018-02-25T20:28:50.805Z,9.57
2018-02-25T20:31:19.835Z,10.13
2018-02-25T20:33:48.899Z,10.43
2018-02-25T20:36:17.904Z,11.15
2018-02-25T20:38:46.812Z,10.68
2018-02-25T20:41:19.978Z,9.25
2018-02-25T20:43:48.867Z,9.50
2018-02-25T20:46:17.767Z,10.90
2018-02-25T20:48:46.932Z,9.88
2018-02-25T20:51:15.845Z,10.40
2018-02-25T20:53:44.787Z,5.55
2018-02-25T20:56:14.622Z,8.98
2018-02-25T20:58:43.802Z,8.35
2018-02-25T21:01:12.687Z,8.52
2018-02-25T21:03:41.869Z,8.35
2018-02-25T21:06:11.930Z,6.90
2018-02-25T21:08:40.868Z,8.07
2018-02-25T21:11:09.922Z,8.27
2018-02-25T21:13:38.851Z,7.45
2018-02-25T21:16:08.028Z,7.60
2018-02-25T21:18:39.562Z,7.18
2018-02-25T21:21:08.451Z,7.97
2018-02-25T21:23:37.391Z,5.68
2018-02-25T21:26:08.868Z,6.82
2018-02-25T21:28:37.922Z,9.05
2018-02-25T21:31:06.954Z,7.25
2018-02-25T21:33:40.685Z,8.80
2018-02-25T21:36:09.689Z,6.87
2018-02-25T21:38:38.571Z,6.90
2018-02-25T21:41:07.698Z,5.80
2018-02-25T21:43:36.574Z,7.25
2018-02-25T21:46:05.641Z,6.60
2018-02-25T21:48:34.745Z,5.65
2018-02-25T21:51:03.799Z,8.10
2018-02-25T21:53:38.712Z,7.15
2018-02-25T21:56:13.296Z,8.98
2018-02-25T21:58:47.811Z,6.97
2018-02-25T22:01:22.422Z,5.28
2018-02-25T22:03:56.808Z,5.80
2018-02-25T22:06:25.775Z,6.57
2018-02-25T22:08:54.733Z,6.40
2018-02-25T22:11:24.787Z,5.20
2018-02-25T22:13:54.049Z,6.20
2018-02-25T22:16:22.358Z,7.65
2018-02-25T22:18:51.561Z,6.72
2018-02-25T22:21:21.519Z,6.95
2018-02-25T22:23:50.925Z,6.00
2018-02-25T22:26:21.619Z,8.77
2018-02-25T22:28:50.750Z,7.45
2018-02-25T22:31:21.156Z,7.18
2018-02-25T22:33:53.628Z,5.70
2018-02-25T22:36:23.029Z,8.43
2018-02-25T22:38:52.216Z,7.78
2018-02-25T22:41:21.704Z,7.28
2018-02-25T22:43:50.842Z,6.50
2018-02-25T22:46:20.125Z,6.15
2018-02-25T22:48:51.486Z,6.87
2018-02-25T22:51:20.565Z,8.85
2018-02-25T22:53:49.790Z,5.25
2018-02-25T22:56:19.265Z,8.10
2018-02-25T22:58:48.361Z,10.10
2018-02-25T23:01:17.387Z,5.90
2018-02-25T23:03:48.221Z,6.87
2018-02-25T23:06:18.347Z,6.07
2018-02-25T23:08:47.435Z,6.05
2018-02-25T23:11:17.406Z,6.40
2018-02-25T23:13:47.167Z,4.95
2018-02-25T23:16:16.336Z,7.05
2018-02-25T23:18:45.341Z,7.70
2018-02-25T23:21:14.389Z,7.30
2018-02-25T23:23:43.602Z,5.45
2018-02-25T23:33:04.100Z,7.22
2018-02-25T23:35:33.373Z,6.47
2018-02-25T23:38:02.586Z,7.10
2018-02-25T23:40:33.148Z,7.70
2018-02-25T23:43:02.189Z,6.28
2018-02-25T23:45:32.311Z,7.45
2018-02-25T23:48:02.357Z,5.97
2018-02-25T23:50:31.769Z,8.05
2018-02-25T23:53:01.376Z,7.30
2018-02-25T23:55:33.803Z,6.85
2018-02-25T23:58:03.054Z,6.95
